Beirne, Arkansas
Current Conditions -  °F | °C
As of 2:56 AM on Thursday 27 Nov 2014 (Local Time) from KADF Reporting Station
Clear Clear  
Wind Chill: 33°   Ceiling: Unl
Heat Index: 37°   Visibility: 10mi
Dew Point: 29°   Wind: 5mph
Humidity: 74%   Direction: 270°W
Pressure: 30.38"   Gusts: NA
Location:  33.89°N, 93.2°W
Report Text: KADF 270856Z AUTO 27004KT 10SM CLR 03/M02 A3038 RMK AO2 51019 T00271016 SLP303
Loading
Personal Weather Stations






























Interactive Weather Map New forecast layout! Learn more

10-Day Weather Forecast

Advertisements
Track Severe Weather on mobile